createdAt,value
2022-07-25T00:00:24.655Z,98456.16
2022-07-25T00:02:27.015Z,98446.84
2022-07-25T00:04:29.205Z,98444.63
2022-07-25T00:06:31.138Z,98444.53
2022-07-25T00:08:32.682Z,98443.25
2022-07-25T00:10:34.298Z,98443.16
2022-07-25T00:12:35.930Z,98437.09
2022-07-25T00:14:37.709Z,98442.22
2022-07-25T00:16:40.155Z,98439.69
2022-07-25T00:18:42.239Z,98437.59
2022-07-25T00:20:43.981Z,98431.09
2022-07-25T00:22:45.875Z,98441.81
2022-07-25T00:24:47.593Z,98441.34
2022-07-25T00:26:49.335Z,98438.91
2022-07-25T00:28:50.924Z,98442.75
2022-07-25T00:30:52.805Z,98435.91
2022-07-25T00:32:54.406Z,98446.63
2022-07-25T00:34:56.158Z,98438.13
2022-07-25T00:36:57.733Z,98431.28
2022-07-25T00:38:59.560Z,98436.03
2022-07-25T00:41:01.421Z,98437.09
2022-07-25T00:43:03.685Z,98433.38
2022-07-25T00:45:05.914Z,98430.94
2022-07-25T00:47:07.678Z,98437.22
2022-07-25T00:49:09.289Z,98433.47
2022-07-25T00:51:12.036Z,98436.16
2022-07-25T00:53:15.018Z,98430.94
2022-07-25T00:55:16.805Z,98428.84
2022-07-25T00:57:18.426Z,98423.94
2022-07-25T00:59:20.050Z,98428.75
2022-07-25T01:01:23.001Z,98427.78
2022-07-25T01:03:24.735Z,98427.78
2022-07-25T01:05:26.493Z,98426.88
2022-07-25T01:07:28.494Z,98428.41
2022-07-25T01:09:30.826Z,98424.78
2022-07-25T01:11:32.460Z,98424.19
2022-07-25T01:13:34.770Z,98420.94
2022-07-25T01:15:36.632Z,98423.63
2022-07-25T01:17:40.909Z,98418.41
2022-07-25T01:19:42.431Z,98411.53
2022-07-25T01:21:43.980Z,98409.56
2022-07-25T01:23:45.652Z,98409.81
2022-07-25T01:25:47.374Z,98411.31
2022-07-25T01:27:54.884Z,98403.28
2022-07-25T01:29:57.338Z,98408.75
2022-07-25T01:31:58.893Z,98402.72
2022-07-25T01:34:00.413Z,98395.38
2022-07-25T01:36:02.059Z,98398.16
2022-07-25T01:38:03.611Z,98391.31
2022-07-25T01:40:09.114Z,98401.53
2022-07-25T01:42:10.848Z,98395.97
2022-07-25T01:44:12.496Z,98393.00
2022-07-25T01:46:14.116Z,98393.38
2022-07-25T01:48:15.697Z,98392.09
2022-07-25T01:50:18.985Z,98397.22
2022-07-25T01:52:20.600Z,98386.41
2022-07-25T01:54:22.154Z,98390.69
2022-07-25T01:56:24.211Z,98397.44
2022-07-25T01:58:25.785Z,98386.63
2022-07-25T02:00:28.156Z,98385.84
2022-07-25T02:02:29.675Z,98388.13
2022-07-25T02:04:31.485Z,98390.91
2022-07-25T02:06:35.372Z,98396.03
2022-07-25T02:08:36.940Z,98387.91
2022-07-25T02:10:38.715Z,98391.84
2022-07-25T02:12:40.291Z,98391.84
2022-07-25T02:14:42.488Z,98388.59
2022-07-25T02:16:44.071Z,98378.94
2022-07-25T02:18:46.065Z,98382.09
2022-07-25T02:20:49.397Z,98384.41
2022-07-25T02:22:50.940Z,98391.59
2022-07-25T02:24:52.589Z,98385.91
2022-07-25T02:26:54.411Z,98394.13
2022-07-25T02:28:55.899Z,98389.38
2022-07-25T02:30:57.590Z,98393.69
2022-07-25T02:33:00.176Z,98396.78
2022-07-25T02:35:01.758Z,98396.31
2022-07-25T02:37:03.507Z,98390.28
2022-07-25T02:39:05.244Z,98389.00
2022-07-25T02:41:07.385Z,98385.28
2022-07-25T02:43:09.500Z,98386.81
2022-07-25T02:45:11.245Z,98389.91
2022-07-25T02:47:12.953Z,98389.09
2022-07-25T02:49:14.713Z,98386.66
2022-07-25T02:51:18.567Z,98387.34
2022-07-25T02:53:34.174Z,98387.69
2022-07-25T02:55:41.922Z,98390.03
2022-07-25T02:57:43.760Z,98388.03
2022-07-25T02:59:45.357Z,98381.50
2022-07-25T03:01:47.055Z,98385.44
2022-07-25T03:03:49.109Z,98391.34
2022-07-25T03:05:50.856Z,98382.84
2022-07-25T03:07:52.417Z,98390.41
2022-07-25T03:09:53.921Z,98383.56
2022-07-25T03:11:55.543Z,98382.75
2022-07-25T03:13:58.025Z,98375.44
2022-07-25T03:15:59.624Z,98378.22
2022-07-25T03:18:01.443Z,98380.50
2022-07-25T03:20:04.684Z,98377.25
2022-07-25T03:22:06.437Z,98381.88
2022-07-25T03:24:08.337Z,98370.59
2022-07-25T03:26:10.316Z,98373.28
2022-07-25T03:28:11.839Z,98365.72
2022-07-25T03:30:13.509Z,98359.69
2022-07-25T03:32:15.272Z,98358.41
2022-07-25T03:34:16.988Z,98351.53
2022-07-25T03:36:19.428Z,98343.56
2022-07-25T03:38:21.021Z,98341.91
2022-07-25T03:40:22.660Z,98344.22
2022-07-25T03:42:26.704Z,98342.59
2022-07-25T03:44:28.512Z,98344.09
2022-07-25T03:46:30.225Z,98336.09
2022-07-25T03:48:31.990Z,98344.78
2022-07-25T03:50:33.851Z,98327.28
2022-07-25T03:52:35.790Z,98339.53
2022-07-25T03:54:37.332Z,98329.59
2022-07-25T03:56:44.711Z,98331.19
2022-07-25T03:58:46.215Z,98334.34
2022-07-25T04:00:48.810Z,98326.66
2022-07-25T04:02:50.836Z,98324.69
2022-07-25T04:04:52.341Z,98319.94
2022-07-25T04:06:54.182Z,98334.19
2022-07-25T04:08:56.158Z,98325.84
2022-07-25T04:10:57.766Z,98321.09
2022-07-25T04:12:59.366Z,98320.75
2022-07-25T04:15:01.226Z,98322.38
2022-07-25T04:17:03.336Z,98325.16
2022-07-25T04:19:05.659Z,98326.31
2022-07-25T04:21:09.031Z,98323.19
2022-07-25T04:23:10.900Z,98329.59
2022-07-25T04:25:12.525Z,98324.03
2022-07-25T04:27:14.205Z,98329.59
2022-07-25T04:29:16.184Z,98336.75
2022-07-25T04:31:18.128Z,98324.50
2022-07-25T04:33:20.951Z,98324.94
2022-07-25T04:35:22.883Z,98324.13
2022-07-25T04:37:24.567Z,98312.69
2022-07-25T04:39:26.171Z,98316.75
2022-07-25T04:41:27.862Z,98319.53
2022-07-25T04:43:29.547Z,98318.81
2022-07-25T04:45:32.810Z,98315.25
2022-07-25T04:47:34.712Z,98309.31
2022-07-25T04:49:36.953Z,98310.25
2022-07-25T04:51:38.588Z,98311.53
2022-07-25T04:53:40.165Z,98299.25
2022-07-25T04:55:41.713Z,98308.91
2022-07-25T04:57:43.382Z,98294.97
2022-07-25T04:59:45.057Z,98300.19
2022-07-25T05:01:46.815Z,98289.53
2022-07-25T05:03:50.309Z,98285.25
2022-07-25T05:05:52.307Z,98296.41
2022-07-25T05:07:59.015Z,98291.63
2022-07-25T05:10:00.975Z,98300.94
2022-07-25T05:12:02.936Z,98296.28
2022-07-25T05:14:04.906Z,98289.22
2022-07-25T05:16:07.275Z,98297.69
2022-07-25T05:18:09.093Z,98292.22
2022-07-25T05:20:12.274Z,98293.22
2022-07-25T05:22:14.413Z,98298.91
2022-07-25T05:24:16.229Z,98301.44
2022-07-25T05:26:18.057Z,98304.00
2022-07-25T05:28:19.901Z,98298.22
2022-07-25T05:30:21.730Z,98303.56
2022-07-25T05:32:23.414Z,98296.25
2022-07-25T05:34:25.148Z,98296.03
2022-07-25T05:36:26.831Z,98301.84
2022-07-25T05:38:28.310Z,98295.69
2022-07-25T05:40:30.070Z,98301.25
2022-07-25T05:42:33.055Z,98291.97
2022-07-25T05:44:34.724Z,98288.72
2022-07-25T05:46:36.465Z,98281.84
2022-07-25T05:48:38.113Z,98284.63
2022-07-25T05:50:40.686Z,98284.13
2022-07-25T05:52:42.791Z,98293.28
2022-07-25T05:54:44.390Z,98290.44
2022-07-25T05:56:46.135Z,98290.03
2022-07-25T05:58:48.008Z,98286.03
2022-07-25T06:00:51.094Z,98293.16
2022-07-25T06:02:53.355Z,98287.63
2022-07-25T06:04:55.143Z,98292.88
2022-07-25T06:06:56.933Z,98287.31
2022-07-25T06:08:58.891Z,98286.94
2022-07-25T06:11:03.872Z,98280.94
2022-07-25T06:13:06.622Z,98283.03
2022-07-25T06:15:12.633Z,98286.59
2022-07-25T06:17:26.902Z,98279.41
2022-07-25T06:19:31.028Z,98278.97
2022-07-25T06:21:32.648Z,98275.75
2022-07-25T06:23:34.273Z,98281.34
2022-07-25T06:25:36.370Z,98281.31
2022-07-25T06:27:38.926Z,98274.50
2022-07-25T06:29:40.493Z,98272.84
2022-07-25T06:31:42.574Z,98271.94
2022-07-25T06:33:48.893Z,98269.06
2022-07-25T06:35:50.574Z,98267.34
2022-07-25T06:37:52.355Z,98268.03
2022-07-25T06:39:53.854Z,98261.88
2022-07-25T06:41:55.552Z,98256.50
2022-07-25T06:43:57.105Z,98262.72
2022-07-25T06:45:58.653Z,98266.91
2022-07-25T06:48:00.304Z,98266.31
2022-07-25T06:50:02.386Z,98257.19
2022-07-25T06:52:04.769Z,98257.75
2022-07-25T06:54:06.784Z,98260.69
2022-07-25T06:56:09.892Z,98262.03
2022-07-25T06:58:13.701Z,98257.72
2022-07-25T07:00:15.869Z,98255.44
2022-07-25T07:02:18.017Z,98243.06
2022-07-25T07:04:19.989Z,98249.59
2022-07-25T07:06:21.570Z,98254.09
2022-07-25T07:08:23.687Z,98256.59
2022-07-25T07:10:25.944Z,98250.19
2022-07-25T07:12:27.713Z,98255.88
2022-07-25T07:14:30.024Z,98249.50
2022-07-25T07:16:32.380Z,98257.19
2022-07-25T07:18:34.476Z,98250.38
2022-07-25T07:20:36.097Z,98237.50
2022-07-25T07:22:45.156Z,98242.34
2022-07-25T07:24:49.201Z,98237.56
2022-07-25T07:26:51.948Z,98235.16
2022-07-25T07:28:55.377Z,98233.97
2022-07-25T07:33:19.080Z,98234.38
2022-07-25T07:35:20.910Z,98227.13
2022-07-25T07:37:22.562Z,98227.56
2022-07-25T07:39:24.182Z,98229.56
2022-07-25T07:41:26.145Z,98223.91
2022-07-25T07:43:31.968Z,98210.97
2022-07-25T07:45:33.848Z,98211.75
2022-07-25T07:47:35.561Z,98209.31
2022-07-25T07:49:37.360Z,98214.13
2022-07-25T07:51:39.129Z,98212.47
2022-07-25T07:53:59.431Z,98209.19
2022-07-25T07:56:00.982Z,98193.00
2022-07-25T07:58:02.849Z,98192.16
2022-07-25T08:00:05.639Z,98189.72
2022-07-25T08:02:14.288Z,98190.03
2022-07-25T08:04:16.360Z,98190.38
2022-07-25T08:06:18.359Z,98173.34
2022-07-25T08:08:20.507Z,98182.59
2022-07-25T08:10:24.829Z,98184.53
2022-07-25T08:12:26.448Z,98192.50
2022-07-25T08:14:28.339Z,98180.72
2022-07-25T08:16:30.074Z,98170.50
2022-07-25T08:18:33.119Z,98178.50
2022-07-25T08:20:38.335Z,98173.56
2022-07-25T08:22:46.456Z,98167.75
2022-07-25T08:24:48.142Z,98171.28
2022-07-25T08:26:49.737Z,98166.31
2022-07-25T08:29:04.989Z,98163.38
2022-07-25T08:31:13.107Z,98168.03
2022-07-25T08:33:16.202Z,98158.19
2022-07-25T08:35:19.565Z,98160.44
2022-07-25T08:37:21.465Z,98162.28
2022-07-25T08:39:23.226Z,98155.25
2022-07-25T08:41:25.234Z,98159.50
2022-07-25T08:43:27.215Z,98153.25
2022-07-25T08:45:29.055Z,98153.47
2022-07-25T08:47:30.934Z,98154.47
2022-07-25T08:49:32.974Z,98159.53
2022-07-25T08:51:34.994Z,98152.44
2022-07-25T08:53:37.219Z,98146.59
2022-07-25T08:55:39.708Z,98146.38
2022-07-25T08:57:43.852Z,98155.06
2022-07-25T08:59:45.523Z,98143.91
2022-07-25T09:01:47.241Z,98136.78
2022-07-25T09:03:51.457Z,98140.59
2022-07-25T09:05:53.287Z,98137.53
2022-07-25T09:07:56.458Z,98127.16
2022-07-25T09:09:58.717Z,98126.94
2022-07-25T09:12:00.748Z,98120.22
2022-07-25T09:14:08.316Z,98120.78
2022-07-25T09:16:10.736Z,98118.09
2022-07-25T09:18:15.934Z,98111.38
2022-07-25T09:20:19.527Z,98118.84
2022-07-25T09:22:21.251Z,98120.63
2022-07-25T09:24:22.986Z,98106.59
2022-07-25T09:26:24.730Z,98097.75
2022-07-25T09:28:29.453Z,98107.31
2022-07-25T09:30:31.249Z,98099.72
2022-07-25T09:32:32.795Z,98100.66
2022-07-25T09:34:39.838Z,98096.72
2022-07-25T09:37:02.610Z,98097.25
2022-07-25T09:39:05.640Z,98097.31
2022-07-25T09:41:07.975Z,98088.06
2022-07-25T09:43:09.960Z,98092.66
2022-07-25T09:45:13.434Z,98093.19
2022-07-25T09:47:16.445Z,98086.34
2022-07-25T09:49:19.267Z,98081.91
2022-07-25T09:51:21.234Z,98074.28
2022-07-25T09:53:23.157Z,98080.47
2022-07-25T09:55:25.126Z,98072.69
2022-07-25T09:57:27.403Z,98072.34
2022-07-25T09:59:29.016Z,98061.81
2022-07-25T10:01:48.444Z,98072.13
2022-07-25T10:04:15.639Z,98061.94
2022-07-25T10:06:22.105Z,98058.25
2022-07-25T10:08:24.667Z,98062.31
2022-07-25T10:10:30.592Z,98057.97
2022-07-25T10:12:32.506Z,98072.31
2022-07-25T10:14:35.589Z,98069.56
2022-07-25T10:16:46.767Z,98057.84
2022-07-25T10:18:55.924Z,98060.00
2022-07-25T10:21:28.651Z,98051.63
2022-07-25T10:23:30.836Z,98061.06
2022-07-25T10:25:33.253Z,98063.50
2022-07-25T10:27:44.620Z,98049.72
2022-07-25T10:29:52.660Z,98053.44
2022-07-25T10:32:05.293Z,98041.75
2022-07-25T10:34:10.286Z,98038.91
2022-07-25T10:36:12.610Z,98032.94
2022-07-25T10:38:14.315Z,98032.63
2022-07-25T10:40:32.221Z,98029.16
2022-07-25T10:42:34.416Z,98023.91
2022-07-25T10:44:42.143Z,98030.00
2022-07-25T10:46:45.069Z,98029.06
2022-07-25T10:48:57.668Z,98027.00
2022-07-25T10:50:59.492Z,98027.31
2022-07-25T10:53:01.698Z,98015.22
2022-07-25T10:55:03.483Z,98018.41
2022-07-25T10:57:13.765Z,98022.25
2022-07-25T10:59:30.300Z,98011.91
2022-07-25T11:01:35.628Z,98012.06
2022-07-25T11:03:37.489Z,98010.31
2022-07-25T11:05:54.621Z,98005.72
2022-07-25T11:08:20.675Z,98002.22
2022-07-25T11:10:26.174Z,97993.00
2022-07-25T11:12:28.177Z,97998.47
2022-07-25T11:14:33.251Z,97984.25
2022-07-25T11:16:35.166Z,97996.56
2022-07-25T11:18:41.601Z,97981.88
2022-07-25T11:20:43.256Z,97984.44
2022-07-25T11:22:52.329Z,97979.34
2022-07-25T11:24:54.201Z,97985.25
2022-07-25T11:26:55.794Z,97976.78
2022-07-25T11:28:57.504Z,97973.78
2022-07-25T11:31:04.604Z,97964.66
2022-07-25T11:33:06.447Z,97962.44
2022-07-25T11:35:10.003Z,97956.06
2022-07-25T11:37:15.070Z,97952.69
2022-07-25T11:39:18.975Z,97944.41
2022-07-25T11:41:30.919Z,97959.06
2022-07-25T11:43:33.044Z,97944.06
2022-07-25T11:45:34.912Z,97940.41
2022-07-25T11:47:37.123Z,97930.50
2022-07-25T11:49:51.181Z,97927.66
2022-07-25T11:51:52.964Z,97928.31
2022-07-25T11:53:54.482Z,97929.72
2022-07-25T11:55:56.397Z,97927.97
2022-07-25T11:58:01.293Z,97929.88
2022-07-25T12:00:23.473Z,97918.41
2022-07-25T12:02:32.635Z,97916.94
2022-07-25T12:04:34.279Z,97911.81
2022-07-25T12:06:36.189Z,97908.28
2022-07-25T12:08:42.765Z,97904.75
2022-07-25T12:10:47.644Z,97902.50
2022-07-25T12:13:04.114Z,97902.00
2022-07-25T12:15:05.995Z,97893.69
2022-07-25T12:17:07.648Z,97909.69
2022-07-25T12:19:18.172Z,97898.19
2022-07-25T12:21:19.697Z,97898.19
2022-07-25T12:23:21.990Z,97895.31
2022-07-25T12:25:28.879Z,97894.50
2022-07-25T12:27:32.400Z,97891.63
2022-07-25T12:29:34.235Z,97894.81
2022-07-25T12:31:36.459Z,97892.59
2022-07-25T12:33:38.483Z,97889.81
2022-07-25T12:35:41.746Z,97887.56
2022-07-25T12:37:44.571Z,97883.53
2022-07-25T12:39:46.450Z,97886.53
2022-07-25T12:41:48.022Z,97892.69
2022-07-25T12:43:49.818Z,97891.72
2022-07-25T12:45:51.645Z,97889.00
2022-07-25T12:47:53.723Z,97876.50
2022-07-25T12:49:56.299Z,97882.09
2022-07-25T12:51:58.422Z,97874.56
2022-07-25T12:54:00.088Z,97873.59
2022-07-25T12:56:04.437Z,97868.44
2022-07-25T12:58:06.400Z,97869.53
2022-07-25T13:00:11.494Z,97868.06
2022-07-25T13:02:16.508Z,97864.19
2022-07-25T13:04:18.207Z,97867.38
2022-07-25T13:06:21.006Z,97857.75
2022-07-25T13:08:22.735Z,97866.72
2022-07-25T13:10:24.460Z,97871.47
2022-07-25T13:12:26.204Z,97858.69
2022-07-25T13:14:27.972Z,97859.00
2022-07-25T13:16:29.904Z,97853.25
2022-07-25T13:18:31.791Z,97861.88
2022-07-25T13:20:36.008Z,97854.84
2022-07-25T13:22:37.911Z,97859.78
2022-07-25T13:24:39.471Z,97856.91
2022-07-25T13:26:41.126Z,97859.00
2022-07-25T13:28:45.605Z,97858.69
2022-07-25T13:30:47.768Z,97860.78
2022-07-25T13:32:49.468Z,97863.66
2022-07-25T13:34:50.930Z,97861.56
2022-07-25T13:36:52.722Z,97864.44
2022-07-25T13:38:54.296Z,97851.88
2022-07-25T13:40:59.078Z,97865.91
2022-07-25T13:43:01.284Z,97859.06
2022-07-25T13:45:03.551Z,97859.53
2022-07-25T13:47:05.527Z,97853.19
2022-07-25T13:49:07.722Z,97846.38
2022-07-25T13:51:09.552Z,97852.78
2022-07-25T13:53:11.313Z,97850.59
2022-07-25T13:55:12.835Z,97854.97
2022-07-25T13:57:14.592Z,97854.63
2022-07-25T13:59:21.215Z,97851.97
2022-07-25T14:01:25.377Z,97860.47
2022-07-25T14:03:27.118Z,97861.09
2022-07-25T14:05:28.808Z,97860.38
2022-07-25T14:07:30.627Z,97866.97
2022-07-25T14:09:32.303Z,97859.53
2022-07-25T14:11:34.101Z,97864.53
2022-07-25T14:13:38.649Z,97861.38
2022-07-25T14:15:40.488Z,97856.16
2022-07-25T14:17:42.258Z,97860.88
2022-07-25T14:19:44.782Z,97861.34
2022-07-25T14:21:49.401Z,97858.53
2022-07-25T14:23:51.432Z,97852.03
2022-07-25T14:25:53.580Z,97845.84
2022-07-25T14:27:55.486Z,97838.50
2022-07-25T14:29:57.536Z,97848.72
2022-07-25T14:31:59.380Z,97854.19
2022-07-25T14:34:01.105Z,97853.88
2022-07-25T14:36:05.798Z,97849.09
2022-07-25T14:38:07.476Z,97858.16
2022-07-25T14:40:11.106Z,97843.22
2022-07-25T14:42:13.378Z,97856.13
2022-07-25T14:44:15.098Z,97854.19
2022-07-25T14:46:17.257Z,97856.38
2022-07-25T14:48:21.241Z,97854.13
2022-07-25T14:50:23.331Z,97864.53
2022-07-25T14:52:27.977Z,97853.38
2022-07-25T14:54:29.651Z,97859.66
2022-07-25T14:56:31.436Z,97862.59
2022-07-25T14:58:33.657Z,97858.28
2022-07-25T15:00:35.538Z,97851.84
2022-07-25T15:02:37.255Z,97852.84
2022-07-25T15:04:40.775Z,97854.84
2022-07-25T15:06:42.378Z,97852.88
2022-07-25T15:08:44.895Z,97849.91
2022-07-25T15:10:47.023Z,97847.75
2022-07-25T15:12:54.318Z,97846.78
2022-07-25T15:15:04.600Z,97832.88
2022-07-25T15:17:06.250Z,97836.00
2022-07-25T15:19:26.078Z,97841.03
2022-07-25T15:21:28.210Z,97822.00
2022-07-25T15:23:30.717Z,97830.31
2022-07-25T15:26:00.676Z,97833.28
2022-07-25T15:27:54.168Z,97832.16
2022-07-25T15:29:56.002Z,97824.50
2022-07-25T15:31:57.776Z,97832.75
2022-07-25T15:33:59.425Z,97832.09
2022-07-25T15:36:01.623Z,97833.91
2022-07-25T15:38:03.984Z,97832.13
2022-07-25T15:40:07.182Z,97838.06
2022-07-25T15:42:09.238Z,97845.25
2022-07-25T15:44:10.881Z,97832.13
2022-07-25T15:46:13.304Z,97840.56
2022-07-25T15:48:16.263Z,97830.69
2022-07-25T15:50:21.077Z,97829.31
2022-07-25T15:52:24.901Z,97834.06
2022-07-25T15:54:29.586Z,97835.09
2022-07-25T15:56:31.518Z,97830.44
2022-07-25T15:58:33.104Z,97827.78
2022-07-25T16:00:34.874Z,97825.06
2022-07-25T16:02:36.555Z,97835.41
2022-07-25T16:04:38.948Z,97823.00
2022-07-25T16:06:40.734Z,97828.44
2022-07-25T16:08:44.864Z,97828.19
2022-07-25T16:10:58.760Z,97830.09
2022-07-25T16:13:01.031Z,97828.72
2022-07-25T16:15:03.149Z,97824.47
2022-07-25T16:17:05.781Z,97826.72
2022-07-25T16:19:08.802Z,97843.19
2022-07-25T16:21:10.771Z,97835.31
2022-07-25T16:23:13.914Z,97832.31
2022-07-25T16:25:15.914Z,97835.81
2022-07-25T16:27:17.635Z,97830.06
2022-07-25T16:29:21.847Z,97826.91
2022-07-25T16:31:23.689Z,97823.00
2022-07-25T16:33:25.538Z,97820.25
2022-07-25T16:35:27.252Z,97819.56
2022-07-25T16:37:29.037Z,97817.94
2022-07-25T16:39:30.667Z,97815.56
2022-07-25T16:41:32.566Z,97816.00
2022-07-25T16:43:34.265Z,97818.84
2022-07-25T16:45:36.484Z,97805.88
2022-07-25T16:47:42.656Z,97814.94
2022-07-25T16:49:44.569Z,97809.72
2022-07-25T16:51:46.586Z,97806.94
2022-07-25T16:53:48.629Z,97814.78
2022-07-25T16:55:54.041Z,97813.72
2022-07-25T16:57:55.837Z,97810.69
2022-07-25T16:59:57.683Z,97810.06
2022-07-25T17:02:00.167Z,97813.84
2022-07-25T17:04:02.470Z,97809.50
2022-07-25T17:06:04.449Z,97807.53
2022-07-25T17:08:06.062Z,97796.72
2022-07-25T17:10:08.669Z,97796.00
2022-07-25T17:12:10.324Z,97795.66
2022-07-25T17:14:12.247Z,97789.69
2022-07-25T17:16:14.176Z,97796.25
2022-07-25T17:18:16.099Z,97797.63
2022-07-25T17:20:18.676Z,97802.16
2022-07-25T17:22:20.608Z,97802.25
2022-07-25T17:24:22.108Z,97805.50
2022-07-25T17:26:23.929Z,97803.13
2022-07-25T17:28:25.987Z,97799.13
2022-07-25T17:30:27.607Z,97797.16
2022-07-25T17:32:30.231Z,97794.38
2022-07-25T17:34:31.908Z,97792.81
2022-07-25T17:36:33.970Z,97797.69
2022-07-25T17:38:36.989Z,97792.06
2022-07-25T17:40:39.089Z,97782.84
2022-07-25T17:42:45.115Z,97788.94
2022-07-25T17:44:47.305Z,97798.38
2022-07-25T17:46:50.443Z,97795.94
2022-07-25T17:48:52.233Z,97807.75
2022-07-25T17:50:55.007Z,97804.09
2022-07-25T17:52:59.676Z,97808.63
2022-07-25T17:55:03.923Z,97804.59
2022-07-25T17:57:06.218Z,97803.50
2022-07-25T17:59:08.731Z,97799.13
2022-07-25T18:01:10.808Z,97808.50
2022-07-25T18:03:12.837Z,97803.34
2022-07-25T18:05:14.738Z,97801.81
2022-07-25T18:07:16.750Z,97813.63
2022-07-25T18:09:20.304Z,97800.31
2022-07-25T18:11:22.201Z,97800.38
2022-07-25T18:13:23.888Z,97797.16
2022-07-25T18:15:25.941Z,97808.97
2022-07-25T18:17:27.844Z,97806.28
2022-07-25T18:19:29.550Z,97808.72
2022-07-25T18:21:31.234Z,97804.72
2022-07-25T18:23:35.008Z,97801.13
2022-07-25T18:25:38.150Z,97810.97
2022-07-25T18:27:46.160Z,97815.88
2022-07-25T18:29:47.772Z,97814.72
2022-07-25T18:31:50.425Z,97812.38
2022-07-25T18:33:52.173Z,97817.31
2022-07-25T18:35:54.282Z,97818.19
2022-07-25T18:37:55.845Z,97813.38
2022-07-25T18:39:57.433Z,97818.31
2022-07-25T18:41:59.064Z,97822.00
2022-07-25T18:44:03.225Z,97820.03
2022-07-25T18:46:05.015Z,97823.75
2022-07-25T18:48:08.319Z,97823.00
2022-07-25T18:50:10.727Z,97829.50
2022-07-25T18:52:12.473Z,97837.25
2022-07-25T18:54:14.326Z,97849.44
2022-07-25T18:56:16.759Z,97848.84
2022-07-25T18:58:18.617Z,97856.69
2022-07-25T19:00:20.753Z,97863.34
2022-07-25T19:02:22.567Z,97861.13
2022-07-25T19:04:24.122Z,97858.88
2022-07-25T19:06:26.095Z,97880.06
2022-07-25T19:08:27.974Z,97874.09
2022-07-25T19:10:29.747Z,97869.75
2022-07-25T19:12:31.777Z,97875.91
2022-07-25T19:14:33.576Z,97882.06
2022-07-25T19:16:35.373Z,97895.88
2022-07-25T19:18:37.300Z,97887.47
2022-07-25T19:20:39.490Z,97893.56
2022-07-25T19:22:41.405Z,97894.91
2022-07-25T19:24:43.629Z,97901.00
2022-07-25T19:26:48.242Z,97917.59
2022-07-25T19:28:51.215Z,97936.25
2022-07-25T19:30:52.997Z,97928.22
2022-07-25T19:32:54.580Z,97935.16
2022-07-25T19:34:56.238Z,97943.28
2022-07-25T19:36:59.292Z,97943.34
2022-07-25T19:39:01.358Z,97950.22
2022-07-25T19:41:03.182Z,97950.66
2022-07-25T19:43:04.933Z,97957.56
2022-07-25T19:45:07.100Z,97960.81
2022-07-25T19:47:11.856Z,97966.13
2022-07-25T19:49:13.800Z,97965.75
2022-07-25T19:51:15.637Z,97975.84
2022-07-25T19:53:17.350Z,97977.09
2022-07-25T19:55:18.892Z,97988.38
2022-07-25T19:57:20.503Z,97989.22
2022-07-25T19:59:22.062Z,97991.25
2022-07-25T20:01:23.844Z,97994.06
2022-07-25T20:03:25.448Z,97995.69
2022-07-25T20:05:27.240Z,98001.34
2022-07-25T20:07:30.328Z,97998.53
2022-07-25T20:09:33.584Z,97998.94
2022-07-25T20:11:38.212Z,97994.13
2022-07-25T20:13:40.108Z,98000.97
2022-07-25T20:15:41.662Z,97992.56
2022-07-25T20:17:43.556Z,97993.75
2022-07-25T20:19:45.158Z,97998.19
2022-07-25T20:21:47.344Z,98002.25
2022-07-25T20:23:49.328Z,98004.66
2022-07-25T20:25:51.284Z,98009.09
2022-07-25T20:27:53.084Z,98015.16
2022-07-25T20:29:54.792Z,98011.91
2022-07-25T20:31:56.681Z,98021.19
2022-07-25T20:33:58.230Z,98024.81
2022-07-25T20:36:00.244Z,98022.81
2022-07-25T20:38:09.301Z,98024.03
2022-07-25T20:40:12.130Z,98041.75
2022-07-25T20:42:13.906Z,98046.56
2022-07-25T20:44:15.606Z,98047.78
2022-07-25T20:46:17.177Z,98045.38
2022-07-25T20:48:19.006Z,98043.78
2022-07-25T20:50:20.837Z,98055.03
2022-07-25T20:52:22.510Z,98065.50
2022-07-25T20:54:24.184Z,98062.63
2022-07-25T20:56:25.790Z,98071.50
2022-07-25T20:58:27.442Z,98079.53
2022-07-25T21:00:30.558Z,98086.75
2022-07-25T21:02:33.400Z,98087.16
2022-07-25T21:04:35.310Z,98089.97
2022-07-25T21:06:37.163Z,98094.00
2022-07-25T21:08:39.130Z,98104.44
2022-07-25T21:10:40.923Z,98100.00
2022-07-25T21:12:42.828Z,98104.41
2022-07-25T21:14:44.372Z,98102.78
2022-07-25T21:16:45.977Z,98102.78
2022-07-25T21:18:47.948Z,98095.53
2022-07-25T21:20:49.531Z,98104.34
2022-07-25T21:22:51.478Z,98105.50
2022-07-25T21:24:53.771Z,98105.50
2022-07-25T21:26:55.298Z,98114.75
2022-07-25T21:28:56.986Z,98126.78
2022-07-25T21:30:58.807Z,98138.41
2022-07-25T21:33:00.373Z,98150.47
2022-07-25T21:35:02.117Z,98152.06
2022-07-25T21:37:03.686Z,98150.03
2022-07-25T21:39:05.467Z,98154.84
2022-07-25T21:41:07.600Z,98142.34
2022-07-25T21:43:13.007Z,98149.16
2022-07-25T21:45:14.966Z,98143.13
2022-07-25T21:47:16.903Z,98148.31
2022-07-25T21:49:42.034Z,98145.09
2022-07-25T21:51:44.681Z,98151.09
2022-07-25T21:53:47.822Z,98155.91
2022-07-25T21:55:49.374Z,98154.25
2022-07-25T21:57:51.545Z,98157.81
2022-07-25T21:59:53.287Z,98152.97
2022-07-25T22:01:54.716Z,98163.81
2022-07-25T22:03:56.363Z,98175.44
2022-07-25T22:05:57.953Z,98176.63
2022-07-25T22:07:59.563Z,98171.34
2022-07-25T22:10:01.211Z,98187.03
2022-07-25T22:12:02.720Z,98180.56
2022-07-25T22:14:04.671Z,98182.16
2022-07-25T22:16:06.597Z,98183.31
2022-07-25T22:18:08.812Z,98184.09
2022-07-25T22:20:11.008Z,98183.25
2022-07-25T22:22:12.828Z,98182.84
2022-07-25T22:24:14.573Z,98189.25
2022-07-25T22:26:16.164Z,98206.50
2022-07-25T22:28:17.724Z,98202.84
2022-07-25T22:30:19.805Z,98214.06
2022-07-25T22:32:21.499Z,98215.63
2022-07-25T22:34:23.353Z,98218.38
2022-07-25T22:36:24.934Z,98222.75
2022-07-25T22:38:26.585Z,98227.16
2022-07-25T22:40:28.142Z,98235.16
2022-07-25T22:42:29.654Z,98230.66
2022-07-25T22:44:31.440Z,98235.88
2022-07-25T22:46:33.137Z,98243.06
2022-07-25T22:48:34.803Z,98235.41
2022-07-25T22:50:36.584Z,98241.38
2022-07-25T22:52:38.143Z,98236.53
2022-07-25T22:54:39.902Z,98231.69
2022-07-25T22:56:41.465Z,98238.06
2022-07-25T22:58:43.003Z,98230.41
2022-07-25T23:00:44.667Z,98230.78
2022-07-25T23:02:46.142Z,98238.75
2022-07-25T23:04:47.939Z,98233.06
2022-07-25T23:06:50.665Z,98245.88
2022-07-25T23:08:52.904Z,98242.63
2022-07-25T23:10:55.497Z,98250.66
2022-07-25T23:12:57.180Z,98261.00
2022-07-25T23:14:58.905Z,98271.38
2022-07-25T23:17:20.240Z,98268.53
2022-07-25T23:19:22.119Z,98273.25
2022-07-25T23:21:27.743Z,98272.41
2022-07-25T23:23:29.275Z,98276.78
2022-07-25T23:25:30.905Z,98279.16
2022-07-25T23:27:34.901Z,98289.94
2022-07-25T23:29:37.425Z,98284.28
2022-07-25T23:31:39.755Z,98288.66
2022-07-25T23:33:41.474Z,98291.41
2022-07-25T23:35:43.422Z,98309.47
2022-07-25T23:37:45.934Z,98305.75
2022-07-25T23:39:47.537Z,98308.16
2022-07-25T23:41:49.182Z,98305.28
2022-07-25T23:43:56.686Z,98304.84
2022-07-25T23:45:59.465Z,98312.41
2022-07-25T23:48:03.852Z,98317.13
2022-07-25T23:50:06.084Z,98313.91
2022-07-25T23:52:08.827Z,98309.50
2022-07-25T23:54:10.442Z,98299.03
2022-07-25T23:56:13.472Z,98299.72
2022-07-25T23:58:16.621Z,98296.84
